Terminal Aerodrome Forecast
Issued by NWS

Home | Current Version | Previous Version | Graphics & Text | Print | Product List | Glossary On
Versions: 1 2 3 4 5 6 7 8 9 10 11 12 13 14 15 16 17 18 19 20 21 22 23 24 25 26 27 28 29 30 31 32 33 34 35 36 37 38 39 40 41
000
FTUS43 KLOT 171400 AAA
TAFDPA
TAF AMD
KDPA 171405Z 1714/1812 27013KT P6SM FEW050 SCT250
     FM171545 27014G20KT P6SM BKN030
     FM171800 28018G27KT P6SM OVC030
     FM180100 32013G20KT P6SM OVC025
     FM180600 33011KT P6SM OVC025=

USA.gov is the U.S. government's official web portal to all federal, state and local government web resources and services.